McCall, Louisiana
Current Conditions -  °F | °C
As of 11:15 AM on Thursday 27 Nov 2014 (Local Time) from KL38 Reporting Station
Clear Clear  
Wind Chill: 57°   Ceiling: Unl
Heat Index: 57°   Visibility: 10mi
Dew Point: 31°   Wind: 7mph
Humidity: 38%   Direction: 360°N
Pressure: 30.44"   Gusts: NA
Location:  30.1206°N, 91.0306°W
Report Text: KL38 271715Z AUTO 36006KT 10SM CLR 14/00 A3044 RMK AO2 T01371003
Loading
Personal Weather Stations






























Interactive Weather Map New forecast layout! Learn more

10-Day Weather Forecast

Advertisements
Track Severe Weather on mobile